Time;durP1;ratioP1;P1;durP2;ratioP2;P2;SDS_P1;SDS_P2;PMS_P1;PMS_P2;Temp;Humidity;BMP_temperature;BMP_pressure;BME280_temperature;BME280_humidity;BME280_pressure;Samples;Min_cycle;Max_cycle;Signal;HPM_P1;HPM_P2
2022/12/01 00:02:20;;;;;;;43.35;13.05;;;;;;;0.01;0.00;59042.03;5100374;28;20451;-53
2022/12/01 00:04:47;;;;;;;41.58;11.95;;;;;;;0.01;0.00;59042.03;5101216;28;20644;-53
2022/12/01 00:07:12;;;;;;;45.88;14.02;;;;;;;0.01;0.00;59042.03;5100105;28;20633;-53
2022/12/01 00:12:21;;;;;;;48.95;13.68;;;;;;;0.01;0.00;59042.03;5100278;28;20192;-53
2022/12/01 00:14:53;;;;;;;44.60;12.88;;;;;;;0.01;0.00;59042.03;5101052;28;20661;-54
2022/12/01 00:17:19;;;;;;;52.60;13.73;;;;;;;0.01;0.00;59042.03;5100282;28;20063;-53
2022/12/01 00:19:45;;;;;;;46.40;12.02;;;;;;;0.01;0.00;59042.03;5100616;28;20035;-56
2022/12/01 00:22:10;;;;;;;36.55;12.27;;;;;;;0.01;0.00;59042.03;5100369;28;20126;-54
2022/12/01 00:24:35;;;;;;;43.35;12.95;;;;;;;0.01;0.00;59042.03;5100560;28;20027;-53
2022/12/01 00:27:01;;;;;;;34.65;8.18;;;;;;;0.01;0.00;59042.03;5100352;28;20067;-53
2022/12/01 00:29:26;;;;;;;52.05;14.68;;;;;;;0.01;0.00;59042.03;5100355;28;20020;-54
2022/12/01 00:31:51;;;;;;;44.85;12.95;;;;;;;0.01;0.00;59042.03;5099546;28;20032;-53
2022/12/01 00:34:22;;;;;;;40.75;10.93;;;;;;;0.01;0.00;59042.03;5100986;28;20134;-52
2022/12/01 00:36:47;;;;;;;45.42;13.25;;;;;;;0.01;0.00;59042.03;5099916;28;20035;-53
2022/12/01 00:39:12;;;;;;;47.17;14.00;;;;;;;0.01;0.00;59042.03;5100843;28;20022;-54
2022/12/01 00:41:38;;;;;;;38.35;8.43;;;;;;;0.01;0.00;59042.03;5100101;28;20082;-53
2022/12/01 00:44:04;;;;;;;35.85;12.23;;;;;;;0.01;0.00;59042.03;5100673;28;20513;-56
2022/12/01 00:46:29;;;;;;;41.22;12.45;;;;;;;0.01;0.00;59042.03;5098109;28;20411;-53
2022/12/01 00:48:54;;;;;;;42.13;12.10;;;;;;;0.01;0.00;59042.03;5100208;28;20613;-56
2022/12/01 00:51:20;;;;;;;42.00;12.70;;;;;;;0.01;0.00;59042.03;5099181;28;20046;-53
2022/12/01 00:53:45;;;;;;;46.00;13.15;;;;;;;0.01;0.00;59042.03;5100352;28;20091;-53
2022/12/01 00:56:10;;;;;;;41.10;12.35;;;;;;;0.01;0.00;59042.03;5099971;28;20031;-54
2022/12/01 00:58:36;;;;;;;41.08;11.48;;;;;;;0.01;0.00;59042.03;5100464;28;20024;-53
2022/12/01 01:01:02;;;;;;;46.38;13.05;;;;;;;0.01;0.00;59042.03;5099177;28;20620;-53
2022/12/01 01:03:28;;;;;;;40.47;12.15;;;;;;;0.01;0.00;59042.03;5100092;28;20949;-53
2022/12/01 01:05:53;;;;;;;43.58;11.90;;;;;;;0.01;0.00;59042.03;5098869;28;20032;-53
2022/12/01 01:08:19;;;;;;;40.15;11.30;;;;;;;0.01;0.00;59042.03;5099550;28;20405;-53
2022/12/01 01:10:46;;;;;;;38.58;11.48;;;;;;;0.01;0.00;59042.03;5099141;28;20036;-55
2022/12/01 01:13:13;;;;;;;41.40;11.77;;;;;;;0.01;0.00;59042.03;5099875;28;20027;-53
2022/12/01 01:15:39;;;;;;;38.15;11.75;;;;;;;0.01;0.00;59042.03;5099450;28;20536;-55
2022/12/01 01:18:04;;;;;;;45.13;12.70;;;;;;;0.01;0.00;59042.03;5100007;28;20038;-55
2022/12/01 01:20:31;;;;;;;40.53;12.25;;;;;;;0.01;0.00;59042.03;5099026;28;20666;-52
2022/12/01 01:22:56;;;;;;;38.78;11.35;;;;;;;0.01;0.00;59042.03;5099955;28;20188;-54
2022/12/01 01:25:22;;;;;;;49.00;11.50;;;;;;;0.01;0.00;59042.03;5099040;28;20131;-55
2022/12/01 01:27:47;;;;;;;36.80;11.20;;;;;;;0.01;0.00;59042.03;5099451;28;20500;-53
2022/12/01 01:30:13;;;;;;;47.60;12.02;;;;;;;0.01;0.00;59042.03;5098558;28;20023;-53
2022/12/01 01:32:38;;;;;;;39.20;12.10;;;;;;;0.01;0.00;59042.03;5099548;28;20193;-53
2022/12/01 01:35:04;;;;;;;41.60;12.10;;;;;;;0.01;0.00;59042.03;5099580;28;20062;-53
2022/12/01 01:37:29;;;;;;;36.08;11.77;;;;;;;0.01;0.00;59042.03;5098838;28;20040;-54
2022/12/01 01:39:55;;;;;;;43.90;12.55;;;;;;;0.01;0.00;59042.03;5099182;28;20012;-53
2022/12/01 01:42:20;;;;;;;45.53;12.30;;;;;;;0.01;0.00;59042.03;5098240;28;20052;-53
2022/12/01 01:44:54;;;;;;;41.10;12.60;;;;;;;0.01;0.00;59042.03;5080580;28;20019;-53
2022/12/01 01:47:25;;;;;;;37.85;11.25;;;;;;;0.01;0.00;59042.03;5098332;28;20080;-53
2022/12/01 01:49:53;;;;;;;50.78;11.73;;;;;;;0.01;0.00;59042.03;5099340;28;20023;-53
2022/12/01 01:52:20;;;;;;;39.15;11.75;;;;;;;0.01;0.00;59042.03;5098633;28;20575;-53
2022/12/01 01:54:49;;;;;;;42.95;11.80;;;;;;;0.01;0.00;59042.03;5098890;28;20023;-53
2022/12/01 01:57:30;;;;;;;40.20;11.98;;;;;;;0.01;0.00;59042.03;5097767;28;20088;-53
2022/12/01 02:02:56;;;;;;;38.88;11.25;;;;;;;0.01;0.00;59042.03;6156815;22;20946;-53
2022/12/01 02:21:02;;;;;;;92.78;17.92;;;;;;;0.01;0.00;59042.03;6055668;22;20828;-55
2022/12/01 02:38:58;;;;;;;203.63;27.25;;;;;;;0.01;0.00;59042.03;6003402;22;20031;-55
2022/12/01 02:51:57;;;;;;;198.88;27.05;;;;;;;0.01;0.00;59042.03;5987499;22;20016;-55
2022/12/01 03:02:28;;;;;;;39.75;12.98;;;;;;;0.01;0.00;59042.03;5424152;22;20321;-56
2022/12/01 03:05:08;;;;;;;41.67;12.23;;;;;;;0.01;0.00;59042.03;4994768;28;20042;-57
2022/12/01 03:07:44;;;;;;;39.70;11.80;;;;;;;0.01;0.00;59042.03;4997709;28;20042;-55
2022/12/01 03:10:24;;;;;;;45.85;12.63;;;;;;;0.01;0.00;59042.03;4997616;28;20117;-54
2022/12/01 03:12:52;;;;;;;46.40;13.48;;;;;;;0.01;0.00;59042.03;4997876;28;20034;-57
2022/12/01 03:15:44;;;;;;;46.00;12.27;;;;;;;0.01;0.00;59042.03;4997757;28;20614;-55
2022/12/01 03:18:21;;;;;;;;;;;;;;;0.01;0.00;59042.03;4998498;28;20029;-53
2022/12/01 03:21:01;;;;;;;50.38;12.70;;;;;;;0.01;0.00;59042.03;4997905;28;19924;-54
2022/12/01 03:23:30;;;;;;;41.25;12.07;;;;;;;0.01;0.00;59042.03;4998620;28;20711;-54
2022/12/01 03:25:59;;;;;;;45.20;12.30;;;;;;;0.01;0.00;59042.03;4997530;28;20029;-53
2022/12/01 03:28:31;;;;;;;42.00;12.35;;;;;;;0.01;0.00;59042.03;4998284;28;20061;-53
2022/12/01 03:31:01;;;;;;;48.22;13.13;;;;;;;0.01;0.00;59042.03;4998525;28;20045;-53
2022/12/01 03:33:33;;;;;;;44.17;12.60;;;;;;;0.01;0.00;59042.03;5002715;28;20030;-55
2022/12/01 03:36:05;;;;;;;;;;;;;;;0.01;0.00;59042.03;5002139;28;20030;-54
2022/12/01 03:38:34;;;;;;;36.30;11.45;;;;;;;0.01;0.00;59042.03;5001647;28;19917;-54
2022/12/01 03:41:11;;;;;;;41.22;12.15;;;;;;;0.01;0.00;59042.03;5000030;28;20653;-56
2022/12/01 03:43:43;;;;;;;45.75;12.43;;;;;;;0.01;0.00;59042.03;5001638;28;20041;-57
2022/12/01 03:46:17;;;;;;;41.75;11.38;;;;;;;0.01;0.00;59042.03;5000984;28;20515;-54
2022/12/01 03:48:43;;;;;;;46.13;12.98;;;;;;;0.01;0.00;59042.03;5001621;28;20033;-53
2022/12/01 03:51:23;;;;;;;42.58;12.65;;;;;;;0.01;0.00;59042.03;5000785;28;20041;-53
2022/12/01 03:54:00;;;;;;;41.10;11.90;;;;;;;0.01;0.00;59042.03;5001839;28;20042;-56
2022/12/01 03:56:32;;;;;;;48.65;12.35;;;;;;;0.01;0.00;59042.03;5000870;28;20041;-54
2022/12/01 03:59:01;;;;;;;39.85;12.05;;;;;;;0.01;0.00;59042.03;5001825;28;20036;-53
2022/12/01 04:01:32;;;;;;;51.22;13.02;;;;;;;0.01;0.00;59042.03;4999382;28;20030;-53
2022/12/01 04:04:10;;;;;;;41.40;11.85;;;;;;;0.01;0.00;59042.03;5001000;28;20068;-54
2022/12/01 04:06:36;;;;;;;43.08;11.95;;;;;;;0.01;0.00;59042.03;5000497;28;20047;-53
2022/12/01 04:09:03;;;;;;;45.83;12.68;;;;;;;0.01;0.00;59042.03;5000603;28;20036;-55
2022/12/01 04:14:12;;;;;;;40.47;12.30;;;;;;;0.01;0.00;59042.03;5001215;28;20261;-56
2022/12/01 04:16:38;;;;;;;44.20;12.82;;;;;;;0.01;0.00;59042.03;5000595;28;20847;-55
2022/12/01 04:19:03;;;;;;;38.03;11.52;;;;;;;0.01;0.00;59042.03;5001018;28;20487;-56
2022/12/01 04:21:28;;;;;;;40.22;12.07;;;;;;;0.01;0.00;59042.03;5000539;28;20152;-55
2022/12/01 04:23:59;;;;;;;47.58;12.98;;;;;;;0.01;0.00;59042.03;5000687;28;20196;-53
2022/12/01 04:26:26;;;;;;;38.05;11.95;;;;;;;0.01;0.00;59042.03;4999828;28;20496;-54
2022/12/01 04:28:51;;;;;;;50.53;12.50;;;;;;;0.01;0.00;59042.03;5000408;28;20041;-54
2022/12/01 04:31:17;;;;;;;36.25;11.00;;;;;;;0.01;0.00;59042.03;4999946;28;20065;-53
2022/12/01 04:33:42;;;;;;;48.17;13.00;;;;;;;0.01;0.00;59042.03;5000336;28;20108;-53
2022/12/01 04:36:08;;;;;;;47.15;13.10;;;;;;;0.01;0.00;59042.03;5000366;28;20054;-53
2022/12/01 04:38:35;;;;;;;41.67;12.40;;;;;;;0.01;0.00;59042.03;5000985;28;20033;-53
2022/12/01 04:41:07;;;;;;;44.35;12.23;;;;;;;0.01;0.00;59042.03;4999835;28;20033;-56
2022/12/01 04:43:32;;;;;;;37.28;11.32;;;;;;;0.01;0.00;59042.03;4999503;28;20109;-53
2022/12/01 04:45:57;;;;;;;46.03;12.15;;;;;;;0.01;0.00;59042.03;4999951;28;20117;-54
2022/12/01 04:48:23;;;;;;;42.33;12.00;;;;;;;0.01;0.00;59042.03;5000607;28;20113;-54
2022/12/01 04:50:48;;;;;;;41.25;11.95;;;;;;;0.01;0.00;59042.03;4999536;28;20041;-55
2022/12/01 04:53:14;;;;;;;46.85;12.68;;;;;;;0.01;0.00;59042.03;5000651;28;20037;-53
2022/12/01 04:55:39;;;;;;;40.88;12.57;;;;;;;0.01;0.00;59042.03;4999856;28;20037;-53
2022/12/01 04:58:05;;;;;;;46.25;13.25;;;;;;;0.01;0.00;59042.03;5000265;28;20034;-54
2022/12/01 05:00:31;;;;;;;45.75;12.63;;;;;;;0.01;0.00;59042.03;5000063;28;20123;-54
2022/12/01 05:02:57;;;;;;;39.72;12.13;;;;;;;0.01;0.00;59042.03;5000259;28;20449;-56
2022/12/01 05:05:22;;;;;;;43.60;12.15;;;;;;;0.01;0.00;59042.03;4999805;28;20030;-54
2022/12/01 05:07:47;;;;;;;40.38;12.25;;;;;;;0.01;0.00;59042.03;5000802;28;20037;-54
2022/12/01 05:10:13;;;;;;;54.70;13.10;;;;;;;0.01;0.00;59042.03;4999436;28;20395;-57
2022/12/01 05:12:40;;;;;;;38.55;12.18;;;;;;;0.01;0.00;59042.03;5000057;28;20088;-54
2022/12/01 05:15:06;;;;;;;38.60;10.80;;;;;;;0.01;0.00;59042.03;4999913;28;20056;-53
2022/12/01 05:17:32;;;;;;;41.22;11.02;;;;;;;0.01;0.00;59042.03;4999620;28;20096;-54
2022/12/01 05:22:41;;;;;;;35.33;10.25;;;;;;;0.01;0.00;59042.03;4999627;28;20426;-53
2022/12/01 05:25:06;;;;;;;36.15;10.88;;;;;;;0.01;0.00;59042.03;4999893;28;20049;-56
2022/12/01 05:27:32;;;;;;;39.78;11.60;;;;;;;0.01;0.00;59042.03;5019166;28;20116;-53
2022/12/01 05:29:57;;;;;;;34.97;10.90;;;;;;;0.01;0.00;59042.03;5019557;28;20075;-54
2022/12/01 05:32:22;;;;;;;50.03;12.90;;;;;;;0.01;0.00;59042.03;5018529;28;20072;-54
2022/12/01 05:34:48;;;;;;;45.45;13.20;;;;;;;0.01;0.00;59042.03;5020255;28;20025;-54
2022/12/01 05:37:13;;;;;;;43.58;13.02;;;;;;;0.01;0.00;59042.03;5018971;28;20112;-54
2022/12/01 05:39:39;;;;;;;52.75;13.90;;;;;;;0.01;0.00;59042.03;5019099;28;20037;-54
2022/12/01 05:42:05;;;;;;;40.35;12.95;;;;;;;0.01;0.00;59042.03;5018366;28;20038;-55
2022/12/01 05:44:30;;;;;;;45.80;12.30;;;;;;;0.01;0.00;59042.03;5018691;28;20091;-54
2022/12/01 05:46:55;;;;;;;38.75;12.38;;;;;;;0.01;0.00;59042.03;5018793;28;20044;-54
2022/12/01 05:49:21;;;;;;;40.60;12.45;;;;;;;0.01;0.00;59042.03;5019387;28;20075;-55
2022/12/01 05:51:46;;;;;;;46.63;13.60;;;;;;;0.01;0.00;59042.03;5018201;28;20041;-53
2022/12/01 05:54:11;;;;;;;44.67;13.48;;;;;;;0.01;0.00;59042.03;5018594;28;20437;-54
2022/12/01 05:56:37;;;;;;;46.00;13.02;;;;;;;0.01;0.00;59042.03;5018602;28;20033;-54
2022/12/01 05:59:02;;;;;;;45.10;13.02;;;;;;;0.01;0.00;59042.03;5019741;28;20394;-55
2022/12/01 06:01:27;;;;;;;37.33;11.60;;;;;;;0.01;0.00;59042.03;5018618;28;20041;-53
2022/12/01 06:03:53;;;;;;;48.53;12.80;;;;;;;0.01;0.00;59042.03;5018693;28;20022;-56
2022/12/01 06:06:19;;;;;;;44.17;11.90;;;;;;;0.01;0.00;59042.03;5018864;28;20048;-54
2022/12/01 06:08:44;;;;;;;52.60;13.73;;;;;;;0.01;0.00;59042.03;5018446;28;20044;-54
2022/12/01 06:11:10;;;;;;;42.58;12.75;;;;;;;0.01;0.00;59042.03;5000398;28;20102;-54
2022/12/01 06:13:35;;;;;;;44.75;13.25;;;;;;;0.01;0.00;59042.03;5018972;28;20033;-55
2022/12/01 06:16:03;;;;;;;50.05;13.77;;;;;;;0.01;0.00;59042.03;5017601;28;20386;-56
2022/12/01 06:18:31;;;;;;;64.55;14.02;;;;;;;0.01;0.00;59042.03;5018763;28;20637;-57
2022/12/01 06:20:57;;;;;;;47.15;13.70;;;;;;;0.01;0.00;59042.03;5017060;28;20208;-56
2022/12/01 06:23:22;;;;;;;45.67;14.07;;;;;;;0.01;0.00;59042.03;5018620;28;20121;-54
2022/12/01 06:25:48;;;;;;;43.85;12.70;;;;;;;0.01;0.00;59042.03;5018277;28;20112;-53
2022/12/01 06:28:14;;;;;;;50.88;14.48;;;;;;;0.01;0.00;59042.03;5018331;28;20018;-53
2022/12/01 06:30:39;;;;;;;52.35;14.45;;;;;;;0.01;0.00;59042.03;5017932;28;20030;-54
2022/12/01 06:33:05;;;;;;;451.60;41.08;;;;;;;0.01;0.00;59042.03;5018175;28;20033;-53
2022/12/01 06:35:30;;;;;;;98.55;16.73;;;;;;;0.01;0.00;59042.03;5017951;28;20041;-53
2022/12/01 06:37:55;;;;;;;75.90;14.57;;;;;;;0.01;0.00;59042.03;5018606;28;20733;-54
2022/12/01 06:40:21;;;;;;;53.55;13.10;;;;;;;0.01;0.00;59042.03;5017998;28;20028;-54
2022/12/01 06:42:46;;;;;;;44.63;13.10;;;;;;;0.01;0.00;59042.03;5018367;28;20100;-53
2022/12/01 06:45:12;;;;;;;47.83;12.85;;;;;;;0.01;0.00;59042.03;5017336;28;20342;-53
2022/12/01 06:47:37;;;;;;;36.75;11.55;;;;;;;0.01;0.00;59042.03;5018524;28;20079;-54
2022/12/01 06:50:06;;;;;;;42.05;12.63;;;;;;;0.01;0.00;59042.03;4999840;28;20149;-54
2022/12/01 06:52:32;;;;;;;40.08;12.50;;;;;;;0.01;0.00;59042.03;5018109;28;20037;-54
2022/12/01 06:54:59;;;;;;;41.42;12.07;;;;;;;0.01;0.00;59042.03;5018107;28;20031;-54
2022/12/01 06:57:25;;;;;;;46.03;12.95;;;;;;;0.01;0.00;59042.03;5017892;28;20065;-54
2022/12/01 06:59:50;;;;;;;44.08;13.15;;;;;;;0.01;0.00;59042.03;5018818;28;20025;-54
2022/12/01 07:02:15;;;;;;;49.25;13.38;;;;;;;0.01;0.00;59042.03;5017694;28;20088;-54
2022/12/01 07:04:41;;;;;;;38.88;12.35;;;;;;;0.01;0.00;59042.03;5018591;28;20092;-54
2022/12/01 07:07:07;;;;;;;42.10;12.35;;;;;;;0.01;0.00;59042.03;5021778;28;20041;-55
2022/12/01 07:09:33;;;;;;;41.03;11.90;;;;;;;0.01;0.00;59042.03;5022551;28;20127;-57
2022/12/01 07:11:58;;;;;;;37.25;11.85;;;;;;;0.01;0.00;59042.03;5021499;28;20124;-54
2022/12/01 07:14:30;;;;;;;40.78;12.40;;;;;;;0.01;0.00;59042.03;5022300;28;20560;-55
2022/12/01 07:16:55;;;;;;;41.65;11.73;;;;;;;0.01;0.00;59042.03;5021128;28;20037;-54
2022/12/01 07:19:21;;;;;;;48.25;12.35;;;;;;;0.01;0.00;59042.03;5022678;28;20036;-53
2022/12/01 07:21:46;;;;;;;48.50;12.88;;;;;;;0.01;0.00;59042.03;5020739;28;20040;-54
2022/12/01 07:24:12;;;;;;;46.88;13.73;;;;;;;0.01;0.00;59042.03;5021935;28;20147;-54
2022/12/01 07:26:39;;;;;;;46.03;12.95;;;;;;;0.01;0.00;59042.03;5020978;28;20034;-56
2022/12/01 07:29:04;;;;;;;43.10;12.65;;;;;;;0.01;0.00;59042.03;5022363;28;20029;-55
2022/12/01 07:31:29;;;;;;;40.38;13.25;;;;;;;0.01;0.00;59042.03;5021002;28;20489;-56
2022/12/01 07:33:55;;;;;;;42.58;12.48;;;;;;;0.01;0.00;59042.03;5021280;28;20036;-57
2022/12/01 07:36:20;;;;;;;42.95;13.07;;;;;;;0.01;0.00;59042.03;5021357;28;20394;-57
2022/12/01 07:38:45;;;;;;;46.15;13.82;;;;;;;0.01;0.00;59042.03;5021325;28;20083;-53
2022/12/01 07:41:13;;;;;;;46.15;13.07;;;;;;;0.01;0.00;59042.03;5020704;28;20055;-56
2022/12/01 07:43:39;;;;;;;45.15;12.48;;;;;;;0.01;0.00;59042.03;5021387;28;20048;-54
2022/12/01 07:46:17;;;;;;;52.58;12.43;;;;;;;0.01;0.00;59042.03;5019992;28;20109;-56
2022/12/01 07:48:43;;;;;;;41.65;12.65;;;;;;;0.01;0.00;59042.03;5021691;28;20021;-53
2022/12/01 07:51:11;;;;;;;48.80;13.13;;;;;;;0.01;0.00;59042.03;5019018;28;20036;-56
2022/12/01 07:53:37;;;;;;;47.88;12.93;;;;;;;0.01;0.00;59042.03;5021856;28;20079;-57
2022/12/01 07:56:04;;;;;;;44.17;12.52;;;;;;;0.01;0.00;59042.03;5020249;28;20048;-54
2022/12/01 07:58:29;;;;;;;42.92;11.40;;;;;;;0.01;0.00;59042.03;5021105;28;20045;-54
2022/12/01 08:00:55;;;;;;;39.92;10.70;;;;;;;0.01;0.00;59042.03;5020425;28;20587;-54
2022/12/01 08:03:20;;;;;;;52.03;13.07;;;;;;;0.01;0.00;59042.03;5021006;28;20756;-54
2022/12/01 08:05:57;;;;;;;42.13;12.93;;;;;;;0.01;0.00;59042.03;5020329;28;20069;-55
2022/12/01 08:08:24;;;;;;;44.40;12.57;;;;;;;0.01;0.00;59042.03;5020702;28;20051;-54
2022/12/01 08:10:49;;;;;;;49.20;13.98;;;;;;;0.01;0.00;59042.03;5019831;28;20042;-54
2022/12/01 08:13:15;;;;;;;48.17;12.07;;;;;;;0.01;0.00;59042.03;5020857;28;20095;-54
2022/12/01 08:15:40;;;;;;;43.90;12.63;;;;;;;0.01;0.00;59042.03;5020205;28;20068;-54
2022/12/01 08:18:05;;;;;;;43.80;11.50;;;;;;;0.01;0.00;59042.03;5020666;28;20115;-57
2022/12/01 08:20:31;;;;;;;39.47;12.57;;;;;;;0.01;0.00;59042.03;5019884;28;20033;-53
2022/12/01 08:23:00;;;;;;;42.10;11.25;;;;;;;0.01;0.00;59042.03;5020006;28;20033;-54
2022/12/01 08:25:26;;;;;;;49.42;13.05;;;;;;;0.01;0.00;59042.03;5019131;28;20030;-55
2022/12/01 08:27:52;;;;;;;41.03;12.82;;;;;;;0.01;0.00;59042.03;5020610;28;20036;-54
2022/12/01 08:30:17;;;;;;;41.88;12.25;;;;;;;0.01;0.00;59042.03;5020212;28;20017;-54
2022/12/01 08:32:44;;;;;;;44.22;13.02;;;;;;;0.01;0.00;59042.03;5018855;28;20042;-55
2022/12/01 08:35:09;;;;;;;42.08;12.50;;;;;;;0.01;0.00;59042.03;5002434;28;20037;-56
2022/12/01 08:37:35;;;;;;;37.92;12.10;;;;;;;0.01;0.00;59042.03;5020194;28;20310;-55
2022/12/01 08:40:00;;;;;;;45.75;11.93;;;;;;;0.01;0.00;59042.03;5020085;28;20033;-54
2022/12/01 08:42:26;;;;;;;41.40;12.02;;;;;;;0.01;0.00;59042.03;5019298;28;20410;-55
2022/12/01 08:44:51;;;;;;;38.35;11.23;;;;;;;0.01;0.00;59042.03;5020111;28;20249;-53
2022/12/01 08:47:16;;;;;;;43.90;11.95;;;;;;;0.01;0.00;59042.03;5018771;28;20459;-54
2022/12/01 08:49:42;;;;;;;37.65;11.88;;;;;;;0.01;0.00;59042.03;5019956;28;20622;-56
2022/12/01 08:52:07;;;;;;;37.78;11.77;;;;;;;0.01;0.00;59042.03;5018862;28;20033;-56
2022/12/01 08:54:32;;;;;;;37.47;11.43;;;;;;;0.01;0.00;59042.03;5019634;28;20357;-54
2022/12/01 08:56:58;;;;;;;39.92;11.93;;;;;;;0.01;0.00;59042.03;5019157;28;20116;-55
2022/12/01 08:59:23;;;;;;;43.72;12.07;;;;;;;0.01;0.00;59042.03;5017585;28;20022;-54
2022/12/01 09:01:52;;;;;;;44.47;12.93;;;;;;;0.01;0.00;59042.03;5018754;28;20061;-55
2022/12/01 09:04:19;;;;;;;41.08;12.55;;;;;;;0.01;0.00;59042.03;5018325;28;20107;-55
2022/12/01 09:06:47;;;;;;;42.67;13.23;;;;;;;0.01;0.00;59042.03;5018767;28;20388;-53
2022/12/01 09:09:17;;;;;;;34.25;11.45;;;;;;;0.01;0.00;59042.03;5019446;28;20071;-53
2022/12/01 09:11:44;;;;;;;43.67;12.10;;;;;;;0.01;0.00;59042.03;5018000;28;20441;-52
2022/12/01 09:14:10;;;;;;;39.13;12.23;;;;;;;0.01;0.00;59042.03;5019801;28;20548;-54
2022/12/01 09:16:36;;;;;;;34.95;11.45;;;;;;;0.01;0.00;59042.03;5019026;28;20041;-55
2022/12/01 09:19:01;;;;;;;38.45;10.90;;;;;;;0.01;0.00;59042.03;5019483;28;20075;-55
2022/12/01 09:21:32;;;;;;;38.35;11.90;;;;;;;0.01;0.00;59042.03;5018537;28;20041;-53
2022/12/01 09:23:58;;;;;;;40.38;11.95;;;;;;;0.01;0.00;59042.03;5019040;28;20062;-53
2022/12/01 09:26:25;;;;;;;42.78;12.35;;;;;;;0.01;0.00;59042.03;5018950;28;20048;-52
2022/12/01 09:28:56;;;;;;;38.83;12.43;;;;;;;0.01;0.00;59042.03;5018441;28;20109;-53
2022/12/01 09:31:24;;;;;;;38.63;12.43;;;;;;;0.01;0.00;59042.03;5017848;28;20048;-56
2022/12/01 09:33:58;;;;;;;44.08;12.15;;;;;;;0.01;0.00;59042.03;5019324;28;20494;-55
2022/12/01 09:36:24;;;;;;;35.30;12.00;;;;;;;0.01;0.00;59042.03;5018247;28;20053;-51
2022/12/01 09:38:49;;;;;;;42.35;12.82;;;;;;;0.01;0.00;59042.03;5019094;28;20538;-52
2022/12/01 09:41:38;;;;;;;35.42;11.30;;;;;;;0.01;0.00;59042.03;5018068;28;20834;-53
2022/12/01 09:44:04;;;;;;;37.95;12.38;;;;;;;0.01;0.00;59042.03;5019014;28;20714;-53
2022/12/01 09:46:48;;;;;;;37.60;11.82;;;;;;;0.01;0.00;59042.03;5018299;28;20120;-52
2022/12/01 09:49:33;;;;;;;37.78;13.20;;;;;;;0.01;0.00;59042.03;5018870;28;20033;-52
2022/12/01 09:51:59;;;;;;;32.95;11.85;;;;;;;0.01;0.00;59042.03;5017508;28;20041;-53
2022/12/01 09:54:24;;;;;;;45.25;13.95;;;;;;;0.01;0.00;59042.03;5018610;28;20025;-54
2022/12/01 09:56:52;;;;;;;39.05;11.90;;;;;;;0.01;0.00;59042.03;5018211;28;20038;-55
2022/12/01 09:59:22;;;;;;;33.72;9.98;;;;;;;0.01;0.00;59042.03;5018469;28;20799;-52
2022/12/01 10:01:53;;;;;;;37.70;12.65;;;;;;;0.01;0.00;59042.03;5017876;28;20033;-54
2022/12/01 10:04:33;;;;;;;72.28;13.43;;;;;;;0.01;0.00;59042.03;5018695;28;20021;-53
2022/12/01 10:07:03;;;;;;;39.25;12.95;;;;;;;0.01;0.00;59042.03;5017572;28;20550;-52
2022/12/01 10:09:50;;;;;;;32.67;10.13;;;;;;;0.01;0.00;59042.03;5018221;28;20037;-55
2022/12/01 10:12:18;;;;;;;29.83;7.88;;;;;;;0.01;0.00;59042.03;5017437;28;20037;-53
2022/12/01 10:14:46;;;;;;;43.35;13.25;;;;;;;0.01;0.00;59042.03;5018109;28;20037;-52
2022/12/01 10:17:30;;;;;;;36.83;12.27;;;;;;;0.01;0.00;59042.03;5017689;28;20045;-56
2022/12/01 10:20:17;;;;;;;41.53;13.48;;;;;;;0.01;0.00;59042.03;5018515;28;20629;-57
2022/12/01 10:23:08;;;;;;;43.33;13.82;;;;;;;0.01;0.00;59042.03;5017748;28;20128;-55
2022/12/01 10:25:44;;;;;;;34.58;11.85;;;;;;;0.01;0.00;59042.03;5017813;28;20713;-56
2022/12/01 10:28:44;;;;;;;39.30;12.98;;;;;;;0.01;0.00;59042.03;5000584;28;20048;-55
2022/12/01 10:31:23;;;;;;;36.65;12.30;;;;;;;0.01;0.00;59042.03;5017833;28;20036;-55
2022/12/01 10:34:01;;;;;;;44.17;13.73;;;;;;;0.01;0.00;59042.03;5016968;28;20037;-53
2022/12/01 10:36:27;;;;;;;39.05;14.05;;;;;;;0.01;0.00;59042.03;5018087;28;20033;-52
2022/12/01 10:38:53;;;;;;;40.53;13.52;;;;;;;0.01;0.00;59042.03;5018132;28;20044;-53
2022/12/01 10:41:21;;;;;;;32.45;12.60;;;;;;;0.01;0.00;59042.03;5016241;28;20045;-53
2022/12/01 10:43:49;;;;;;;39.28;13.05;;;;;;;0.01;0.00;59042.03;5018309;28;20032;-52
2022/12/01 10:46:42;;;;;;;38.85;13.32;;;;;;;0.01;0.00;59042.03;5016886;28;20049;-53
2022/12/01 10:49:09;;;;;;;;;;;;;;;0.01;0.00;59042.03;5018030;28;20795;-56
2022/12/01 10:51:45;;;;;;;39.22;13.88;;;;;;;0.01;0.00;59042.03;5017335;28;20000;-54
2022/12/01 10:54:11;;;;;;;46.47;14.80;;;;;;;0.01;0.00;59042.03;5017677;28;20037;-55
2022/12/01 10:56:39;;;;;;;32.03;11.80;;;;;;;0.01;0.00;59042.03;5017729;28;20046;-53
2022/12/01 10:59:22;;;;;;;40.03;14.48;;;;;;;0.01;0.00;59042.03;5017530;28;20514;-53
2022/12/01 11:01:47;;;;;;;36.45;12.35;;;;;;;0.01;0.00;59042.03;5016861;28;20048;-53
2022/12/01 11:04:28;;;;;;;42.50;14.30;;;;;;;0.01;0.00;59042.03;5017952;28;20041;-55
2022/12/01 11:06:54;;;;;;;33.75;12.18;;;;;;;0.01;0.00;59042.03;5017636;28;20048;-53
2022/12/01 11:09:23;;;;;;;41.75;13.13;;;;;;;0.01;0.00;59042.03;5016603;28;20124;-55
2022/12/01 11:11:58;;;;;;;36.22;12.00;;;;;;;0.01;0.00;59042.03;5017165;28;20152;-54
2022/12/01 11:14:32;;;;;;;40.00;11.02;;;;;;;0.01;0.00;59042.03;5017769;28;20607;-53
2022/12/01 11:17:14;;;;;;;34.47;11.70;;;;;;;0.01;0.00;59042.03;5017869;28;20041;-53
2022/12/01 11:19:39;;;;;;;37.08;11.10;;;;;;;0.01;0.00;59042.03;5017694;28;20023;-52
2022/12/01 11:22:30;;;;;;;33.53;11.38;;;;;;;0.01;0.00;59042.03;4999459;28;20555;-53
2022/12/01 11:25:01;;;;;;;34.75;11.40;;;;;;;0.01;0.00;59042.03;5018049;28;20064;-53
2022/12/01 11:27:48;;;;;;;34.70;11.27;;;;;;;0.01;0.00;59042.03;5017044;28;20045;-54
2022/12/01 11:30:24;;;;;;;36.88;12.35;;;;;;;0.01;0.00;59042.03;5016771;28;20025;-54
2022/12/01 11:32:57;;;;;;;37.38;12.13;;;;;;;0.01;0.00;59042.03;5016979;28;20064;-54
2022/12/01 11:35:26;;;;;;;32.50;11.73;;;;;;;0.01;0.00;59042.03;5017479;28;20025;-53
2022/12/01 11:37:59;;;;;;;37.67;12.60;;;;;;;0.01;0.00;59042.03;5017759;28;20495;-53
2022/12/01 11:40:30;;;;;;;32.28;10.32;;;;;;;0.01;0.00;59042.03;5017281;28;20038;-53
2022/12/01 11:42:59;;;;;;;32.90;9.80;;;;;;;0.01;0.00;59042.03;5017198;28;20033;-52
2022/12/01 11:45:35;;;;;;;32.53;11.07;;;;;;;0.01;0.00;59042.03;5017675;28;20041;-56
2022/12/01 11:48:04;;;;;;;35.72;11.95;;;;;;;0.01;0.00;59042.03;5017861;28;20652;-53
2022/12/01 11:50:33;;;;;;;27.52;10.70;;;;;;;0.01;0.00;59042.03;5017423;28;20698;-54
2022/12/01 11:52:58;;;;;;;36.85;11.68;;;;;;;0.01;0.00;59042.03;5019930;28;20037;-53
2022/12/01 11:55:26;;;;;;;26.23;7.32;;;;;;;0.01;0.00;59042.03;5020876;28;20032;-52
2022/12/01 11:58:00;;;;;;;31.63;10.35;;;;;;;0.01;0.00;59042.03;5020672;28;20029;-52
2022/12/01 12:00:44;;;;;;;33.50;11.10;;;;;;;0.01;0.00;59042.03;5020611;28;20033;-53
2022/12/01 12:03:25;;;;;;;38.83;11.82;;;;;;;0.01;0.00;59042.03;5020589;28;20068;-53
2022/12/01 12:06:19;;;;;;;29.08;9.80;;;;;;;0.01;0.00;59042.03;5020868;28;20115;-54
2022/12/01 12:09:10;;;;;;;25.80;6.72;;;;;;;0.01;0.00;59042.03;5012100;28;20037;-53
2022/12/01 12:11:54;;;;;;;28.63;9.80;;;;;;;0.01;0.00;59042.03;5020277;28;20041;-55
2022/12/01 12:14:37;;;;;;;36.08;10.57;;;;;;;0.01;0.00;59042.03;5020699;28;20057;-55
2022/12/01 12:17:26;;;;;;;29.75;9.50;;;;;;;0.01;0.00;59042.03;5020371;28;20340;-53
2022/12/01 12:20:36;;;;;;;31.33;9.48;;;;;;;0.01;0.00;59042.03;5020756;28;20025;-58
2022/12/01 12:23:43;;;;;;;36.40;11.52;;;;;;;0.01;0.00;59042.03;5007855;28;20057;-54
2022/12/01 12:26:28;;;;;;;28.27;9.43;;;;;;;0.01;0.00;59042.03;5004032;28;20033;-55
2022/12/01 12:29:12;;;;;;;31.25;11.73;;;;;;;0.01;0.00;59042.03;5020575;28;20029;-53
2022/12/01 12:32:01;;;;;;;34.63;10.50;;;;;;;0.01;0.00;59042.03;5019550;28;20333;-53
2022/12/01 12:34:39;;;;;;;35.28;11.25;;;;;;;0.01;0.00;59042.03;5020631;28;20047;-54
2022/12/01 12:37:25;;;;;;;29.25;10.18;;;;;;;0.01;0.00;59042.03;5020504;28;20049;-54
2022/12/01 12:39:50;;;;;;;43.20;12.27;;;;;;;0.01;0.00;59042.03;5019955;28;20128;-54
2022/12/01 12:42:38;;;;;;;34.35;10.73;;;;;;;0.01;0.00;59042.03;5019703;28;20120;-54
2022/12/01 12:45:15;;;;;;;34.65;10.90;;;;;;;0.01;0.00;59042.03;5020764;28;20029;-55
2022/12/01 12:47:52;;;;;;;36.28;10.43;;;;;;;0.01;0.00;59042.03;5019963;28;20041;-53